sensor_id;sensor_type;location;lat;lon;timestamp;temperature;humidity
24103;DHT22;12278;53.058;9.028;2022-09-12T00:00:13;12.90;99.90
24103;DHT22;12278;53.058;9.028;2022-09-12T00:04:15;12.90;99.90
24103;DHT22;12278;53.058;9.028;2022-09-12T00:08:15;12.90;99.90
24103;DHT22;12278;53.058;9.028;2022-09-12T00:12:16;13.00;99.90
24103;DHT22;12278;53.058;9.028;2022-09-12T00:16:21;12.90;99.90
24103;DHT22;12278;53.058;9.028;2022-09-12T00:20:23;12.80;99.90
24103;DHT22;12278;53.058;9.028;2022-09-12T00:24:24;12.80;99.90
24103;DHT22;12278;53.058;9.028;2022-09-12T00:28:25;12.70;99.90
24103;DHT22;12278;53.058;9.028;2022-09-12T00:32:27;12.70;99.90
24103;DHT22;12278;53.058;9.028;2022-09-12T00:36:28;12.70;99.90
24103;DHT22;12278;53.058;9.028;2022-09-12T00:40:29;12.70;99.90
24103;DHT22;12278;53.058;9.028;2022-09-12T00:48:38;12.70;99.90
24103;DHT22;12278;53.058;9.028;2022-09-12T00:52:49;12.60;99.90
24103;DHT22;12278;53.058;9.028;2022-09-12T00:56:54;12.60;99.90
24103;DHT22;12278;53.058;9.028;2022-09-12T01:00:59;12.60;99.90
24103;DHT22;12278;53.058;9.028;2022-09-12T01:05:00;12.60;99.90
24103;DHT22;12278;53.058;9.028;2022-09-12T01:09:01;12.40;99.90
24103;DHT22;12278;53.058;9.028;2022-09-12T01:13:04;12.40;99.90
24103;DHT22;12278;53.058;9.028;2022-09-12T01:17:06;12.40;99.90
24103;DHT22;12278;53.058;9.028;2022-09-12T01:25:30;12.30;99.90
24103;DHT22;12278;53.058;9.028;2022-09-12T01:43:35;12.20;99.90
24103;DHT22;12278;53.058;9.028;2022-09-12T01:56:01;12.20;99.90
24103;DHT22;12278;53.058;9.028;2022-09-12T02:00:11;12.20;99.90
24103;DHT22;12278;53.058;9.028;2022-09-12T02:04:14;12.20;99.90
24103;DHT22;12278;53.058;9.028;2022-09-12T02:08:40;12.20;99.90
24103;DHT22;12278;53.058;9.028;2022-09-12T02:12:47;12.10;99.90
24103;DHT22;12278;53.058;9.028;2022-09-12T02:16:54;12.10;99.90
24103;DHT22;12278;53.058;9.028;2022-09-12T02:20:59;12.00;99.90
24103;DHT22;12278;53.058;9.028;2022-09-12T02:25:03;12.00;99.90
24103;DHT22;12278;53.058;9.028;2022-09-12T02:29:07;12.00;99.90
24103;DHT22;12278;53.058;9.028;2022-09-12T02:37:22;11.90;99.90
24103;DHT22;12278;53.058;9.028;2022-09-12T02:41:31;11.90;99.90
24103;DHT22;12278;53.058;9.028;2022-09-12T02:45:33;11.80;99.90
24103;DHT22;12278;53.058;9.028;2022-09-12T02:49:35;11.80;99.90
24103;DHT22;12278;53.058;9.028;2022-09-12T02:53:36;11.70;99.90
24103;DHT22;12278;53.058;9.028;2022-09-12T02:57:37;11.70;99.90
24103;DHT22;12278;53.058;9.028;2022-09-12T03:06:13;11.60;99.90
24103;DHT22;12278;53.058;9.028;2022-09-12T03:10:27;11.60;99.90
24103;DHT22;12278;53.058;9.028;2022-09-12T03:14:38;11.60;99.90
24103;DHT22;12278;53.058;9.028;2022-09-12T03:18:59;11.60;99.90
24103;DHT22;12278;53.058;9.028;2022-09-12T03:23:10;11.50;99.90
24103;DHT22;12278;53.058;9.028;2022-09-12T03:31:31;11.40;99.90
24103;DHT22;12278;53.058;9.028;2022-09-12T03:35:32;11.40;99.90
24103;DHT22;12278;53.058;9.028;2022-09-12T03:39:33;11.40;99.90
24103;DHT22;12278;53.058;9.028;2022-09-12T03:43:33;11.30;99.90
24103;DHT22;12278;53.058;9.028;2022-09-12T03:47:38;11.20;99.90
24103;DHT22;12278;53.058;9.028;2022-09-12T03:51:39;11.20;99.90
24103;DHT22;12278;53.058;9.028;2022-09-12T03:55:40;11.20;99.90
24103;DHT22;12278;53.058;9.028;2022-09-12T03:59:41;11.20;99.90
24103;DHT22;12278;53.058;9.028;2022-09-12T04:03:42;11.20;99.90
24103;DHT22;12278;53.058;9.028;2022-09-12T04:07:44;11.20;99.90
24103;DHT22;12278;53.058;9.028;2022-09-12T04:11:45;11.20;99.90
24103;DHT22;12278;53.058;9.028;2022-09-12T04:15:54;11.20;99.90
24103;DHT22;12278;53.058;9.028;2022-09-12T04:19:56;11.10;99.90
24103;DHT22;12278;53.058;9.028;2022-09-12T04:23:56;11.10;99.90
24103;DHT22;12278;53.058;9.028;2022-09-12T04:27:57;11.00;99.90
24103;DHT22;12278;53.058;9.028;2022-09-12T04:31:57;11.00;99.90
24103;DHT22;12278;53.058;9.028;2022-09-12T04:36:05;10.90;99.90
24103;DHT22;12278;53.058;9.028;2022-09-12T04:40:08;11.00;99.90
24103;DHT22;12278;53.058;9.028;2022-09-12T04:44:10;11.00;99.90
24103;DHT22;12278;53.058;9.028;2022-09-12T04:48:17;10.90;99.90
24103;DHT22;12278;53.058;9.028;2022-09-12T04:52:17;10.90;99.90
24103;DHT22;12278;53.058;9.028;2022-09-12T04:56:18;10.90;99.90
24103;DHT22;12278;53.058;9.028;2022-09-12T05:00:20;10.90;99.90
24103;DHT22;12278;53.058;9.028;2022-09-12T05:04:21;10.90;99.90
24103;DHT22;12278;53.058;9.028;2022-09-12T05:08:21;10.90;99.90
24103;DHT22;12278;53.058;9.028;2022-09-12T05:12:22;11.00;99.90
24103;DHT22;12278;53.058;9.028;2022-09-12T05:16:24;11.00;99.90
24103;DHT22;12278;53.058;9.028;2022-09-12T05:20:26;11.10;99.90
24103;DHT22;12278;53.058;9.028;2022-09-12T05:24:27;11.20;99.90
24103;DHT22;12278;53.058;9.028;2022-09-12T05:28:29;11.40;99.90
24103;DHT22;12278;53.058;9.028;2022-09-12T05:32:31;11.50;99.90
24103;DHT22;12278;53.058;9.028;2022-09-12T05:36:32;11.50;99.90
24103;DHT22;12278;53.058;9.028;2022-09-12T05:40:33;11.60;99.90
24103;DHT22;12278;53.058;9.028;2022-09-12T05:44:33;11.80;99.90
24103;DHT22;12278;53.058;9.028;2022-09-12T05:48:34;11.80;99.90
24103;DHT22;12278;53.058;9.028;2022-09-12T05:52:36;12.00;99.90
24103;DHT22;12278;53.058;9.028;2022-09-12T05:56:38;12.10;99.90
24103;DHT22;12278;53.058;9.028;2022-09-12T06:00:40;12.50;99.90
24103;DHT22;12278;53.058;9.028;2022-09-12T06:04:40;12.80;99.90
24103;DHT22;12278;53.058;9.028;2022-09-12T06:08:42;13.10;99.90
24103;DHT22;12278;53.058;9.028;2022-09-12T06:12:44;13.50;99.90
24103;DHT22;12278;53.058;9.028;2022-09-12T06:16:45;13.70;99.90
24103;DHT22;12278;53.058;9.028;2022-09-12T06:20:46;14.00;99.90
24103;DHT22;12278;53.058;9.028;2022-09-12T06:24:47;14.30;99.90
24103;DHT22;12278;53.058;9.028;2022-09-12T06:28:48;14.60;99.90
24103;DHT22;12278;53.058;9.028;2022-09-12T06:32:49;14.90;99.90
24103;DHT22;12278;53.058;9.028;2022-09-12T06:36:50;15.10;99.90
24103;DHT22;12278;53.058;9.028;2022-09-12T06:40:50;15.30;99.90
24103;DHT22;12278;53.058;9.028;2022-09-12T06:44:51;15.50;99.90
24103;DHT22;12278;53.058;9.028;2022-09-12T06:48:52;15.40;99.90
24103;DHT22;12278;53.058;9.028;2022-09-12T06:52:55;15.60;99.90
24103;DHT22;12278;53.058;9.028;2022-09-12T06:56:56;15.60;99.90
24103;DHT22;12278;53.058;9.028;2022-09-12T07:01:15;15.90;99.90
24103;DHT22;12278;53.058;9.028;2022-09-12T07:05:16;16.20;99.90
24103;DHT22;12278;53.058;9.028;2022-09-12T07:09:17;16.50;99.90
24103;DHT22;12278;53.058;9.028;2022-09-12T07:13:17;17.00;99.90
24103;DHT22;12278;53.058;9.028;2022-09-12T07:17:19;17.10;99.90
24103;DHT22;12278;53.058;9.028;2022-09-12T07:21:19;17.30;99.90
24103;DHT22;12278;53.058;9.028;2022-09-12T07:25:21;17.30;99.90
24103;DHT22;12278;53.058;9.028;2022-09-12T07:29:21;17.50;99.90
24103;DHT22;12278;53.058;9.028;2022-09-12T07:33:23;17.40;99.90
24103;DHT22;12278;53.058;9.028;2022-09-12T07:37:28;17.40;99.90
24103;DHT22;12278;53.058;9.028;2022-09-12T07:41:31;17.60;99.90
24103;DHT22;12278;53.058;9.028;2022-09-12T07:45:33;17.70;99.90
24103;DHT22;12278;53.058;9.028;2022-09-12T07:49:33;18.00;99.90
24103;DHT22;12278;53.058;9.028;2022-09-12T07:53:36;18.60;99.90
24103;DHT22;12278;53.058;9.028;2022-09-12T07:57:38;18.80;99.90
24103;DHT22;12278;53.058;9.028;2022-09-12T08:01:39;19.10;99.90
24103;DHT22;12278;53.058;9.028;2022-09-12T08:05:40;19.50;99.90
24103;DHT22;12278;53.058;9.028;2022-09-12T08:09:41;19.80;99.90
24103;DHT22;12278;53.058;9.028;2022-09-12T08:13:42;20.00;99.90
24103;DHT22;12278;53.058;9.028;2022-09-12T08:17:43;19.90;99.90
24103;DHT22;12278;53.058;9.028;2022-09-12T08:21:44;19.60;99.90
24103;DHT22;12278;53.058;9.028;2022-09-12T08:25:45;18.70;99.90
24103;DHT22;12278;53.058;9.028;2022-09-12T08:29:45;18.70;99.90
24103;DHT22;12278;53.058;9.028;2022-09-12T08:33:46;18.50;99.90
24103;DHT22;12278;53.058;9.028;2022-09-12T08:37:47;18.50;99.90
24103;DHT22;12278;53.058;9.028;2022-09-12T08:41:48;18.40;99.90
24103;DHT22;12278;53.058;9.028;2022-09-12T08:50:48;18.40;99.90
24103;DHT22;12278;53.058;9.028;2022-09-12T08:54:49;18.70;99.90
24103;DHT22;12278;53.058;9.028;2022-09-12T08:58:50;18.80;99.90
24103;DHT22;12278;53.058;9.028;2022-09-12T09:15:57;19.00;99.90
24103;DHT22;12278;53.058;9.028;2022-09-12T09:24:18;19.40;99.90
24103;DHT22;12278;53.058;9.028;2022-09-12T09:32:37;19.70;99.90
24103;DHT22;12278;53.058;9.028;2022-09-12T09:41:05;20.20;99.90
24103;DHT22;12278;53.058;9.028;2022-09-12T09:45:21;20.40;99.90
24103;DHT22;12278;53.058;9.028;2022-09-12T09:49:29;20.20;99.90
24103;DHT22;12278;53.058;9.028;2022-09-12T09:58:02;20.20;99.90
24103;DHT22;12278;53.058;9.028;2022-09-12T10:02:20;20.30;99.90
24103;DHT22;12278;53.058;9.028;2022-09-12T10:06:25;20.50;99.90
24103;DHT22;12278;53.058;9.028;2022-09-12T10:10:32;20.60;99.90
24103;DHT22;12278;53.058;9.028;2022-09-12T10:14:37;20.70;99.90
24103;DHT22;12278;53.058;9.028;2022-09-12T10:18:41;20.60;99.90
24103;DHT22;12278;53.058;9.028;2022-09-12T10:22:46;20.70;99.90
24103;DHT22;12278;53.058;9.028;2022-09-12T10:31:23;20.60;99.90
24103;DHT22;12278;53.058;9.028;2022-09-12T10:35:30;20.70;99.90
24103;DHT22;12278;53.058;9.028;2022-09-12T10:39:51;20.60;99.90
24103;DHT22;12278;53.058;9.028;2022-09-12T10:44:03;20.70;99.90
24103;DHT22;12278;53.058;9.028;2022-09-12T10:48:27;20.80;99.90
24103;DHT22;12278;53.058;9.028;2022-09-12T10:52:31;20.80;99.90
24103;DHT22;12278;53.058;9.028;2022-09-12T10:56:38;20.80;99.90
24103;DHT22;12278;53.058;9.028;2022-09-12T11:00:50;20.80;99.90
24103;DHT22;12278;53.058;9.028;2022-09-12T11:05:32;20.90;99.90
24103;DHT22;12278;53.058;9.028;2022-09-12T11:09:54;20.80;99.90
24103;DHT22;12278;53.058;9.028;2022-09-12T11:35:34;22.80;99.90
24103;DHT22;12278;53.058;9.028;2022-09-12T11:39:45;22.70;99.90
24103;DHT22;12278;53.058;9.028;2022-09-12T11:43:55;22.50;99.90
24103;DHT22;12278;53.058;9.028;2022-09-12T11:48:03;22.30;99.90
24103;DHT22;12278;53.058;9.028;2022-09-12T11:56:15;23.10;99.90
24103;DHT22;12278;53.058;9.028;2022-09-12T12:00:31;23.20;99.90
24103;DHT22;12278;53.058;9.028;2022-09-12T12:04:43;23.10;99.90
24103;DHT22;12278;53.058;9.028;2022-09-12T12:09:06;22.90;99.90
24103;DHT22;12278;53.058;9.028;2022-09-12T12:17:18;22.70;99.90
24103;DHT22;12278;53.058;9.028;2022-09-12T12:29:51;23.10;99.90
24103;DHT22;12278;53.058;9.028;2022-09-12T12:33:53;23.60;99.90
24103;DHT22;12278;53.058;9.028;2022-09-12T12:37:54;23.80;99.90
24103;DHT22;12278;53.058;9.028;2022-09-12T12:41:58;23.90;99.90
24103;DHT22;12278;53.058;9.028;2022-09-12T12:46:04;24.10;99.90
24103;DHT22;12278;53.058;9.028;2022-09-12T13:02:47;24.50;99.90
24103;DHT22;12278;53.058;9.028;2022-09-12T13:11:06;24.60;99.40
24103;DHT22;12278;53.058;9.028;2022-09-12T13:19:36;25.00;98.80
24103;DHT22;12278;53.058;9.028;2022-09-12T13:23:37;25.60;98.40
24103;DHT22;12278;53.058;9.028;2022-09-12T13:27:38;25.70;98.40
24103;DHT22;12278;53.058;9.028;2022-09-12T13:31:39;25.50;96.80
24103;DHT22;12278;53.058;9.028;2022-09-12T13:44:02;27.90;93.10
24103;DHT22;12278;53.058;9.028;2022-09-12T13:48:25;27.80;92.80
24103;DHT22;12278;53.058;9.028;2022-09-12T13:52:28;27.70;92.00
24103;DHT22;12278;53.058;9.028;2022-09-12T13:56:50;27.10;92.40
24103;DHT22;12278;53.058;9.028;2022-09-12T14:05:16;27.30;91.50
24103;DHT22;12278;53.058;9.028;2022-09-12T14:09:21;28.20;91.60
24103;DHT22;12278;53.058;9.028;2022-09-12T14:13:26;29.10;88.20
24103;DHT22;12278;53.058;9.028;2022-09-12T14:21:32;30.20;84.20
24103;DHT22;12278;53.058;9.028;2022-09-12T14:25:36;29.10;84.00
24103;DHT22;12278;53.058;9.028;2022-09-12T14:29:40;29.30;84.30
24103;DHT22;12278;53.058;9.028;2022-09-12T14:37:48;29.10;86.40
24103;DHT22;12278;53.058;9.028;2022-09-12T14:41:58;30.00;82.90
24103;DHT22;12278;53.058;9.028;2022-09-12T14:46:22;28.50;81.80
24103;DHT22;12278;53.058;9.028;2022-09-12T14:50:27;27.70;86.20
24103;DHT22;12278;53.058;9.028;2022-09-12T14:54:34;26.90;89.40
24103;DHT22;12278;53.058;9.028;2022-09-12T14:58:39;26.90;90.50
24103;DHT22;12278;53.058;9.028;2022-09-12T15:02:42;27.50;88.70
24103;DHT22;12278;53.058;9.028;2022-09-12T15:06:43;27.90;87.10
24103;DHT22;12278;53.058;9.028;2022-09-12T15:10:44;27.60;87.40
24103;DHT22;12278;53.058;9.028;2022-09-12T15:14:45;27.50;87.90
24103;DHT22;12278;53.058;9.028;2022-09-12T15:18:46;27.90;87.00
24103;DHT22;12278;53.058;9.028;2022-09-12T15:22:47;27.90;85.30
24103;DHT22;12278;53.058;9.028;2022-09-12T15:26:47;28.00;85.30
24103;DHT22;12278;53.058;9.028;2022-09-12T15:30:48;27.40;87.60
24103;DHT22;12278;53.058;9.028;2022-09-12T15:34:51;26.90;89.40
24103;DHT22;12278;53.058;9.028;2022-09-12T15:38:52;26.60;90.00
24103;DHT22;12278;53.058;9.028;2022-09-12T15:42:53;26.00;90.30
24103;DHT22;12278;53.058;9.028;2022-09-12T15:46:54;25.70;91.10
24103;DHT22;12278;53.058;9.028;2022-09-12T15:50:55;25.70;90.60
24103;DHT22;12278;53.058;9.028;2022-09-12T15:55:00;25.40;91.40
24103;DHT22;12278;53.058;9.028;2022-09-12T15:59:01;25.70;91.70
24103;DHT22;12278;53.058;9.028;2022-09-12T16:03:02;25.40;91.20
24103;DHT22;12278;53.058;9.028;2022-09-12T16:07:04;24.70;92.70
24103;DHT22;12278;53.058;9.028;2022-09-12T16:11:11;24.10;93.60
24103;DHT22;12278;53.058;9.028;2022-09-12T16:15:20;23.70;94.80
24103;DHT22;12278;53.058;9.028;2022-09-12T16:19:22;23.30;95.20
24103;DHT22;12278;53.058;9.028;2022-09-12T16:23:22;23.20;95.60
24103;DHT22;12278;53.058;9.028;2022-09-12T16:27:23;23.00;96.00
24103;DHT22;12278;53.058;9.028;2022-09-12T16:31:24;22.90;96.90
24103;DHT22;12278;53.058;9.028;2022-09-12T16:35:25;22.80;97.60
24103;DHT22;12278;53.058;9.028;2022-09-12T16:39:26;22.80;97.50
24103;DHT22;12278;53.058;9.028;2022-09-12T16:43:27;22.70;98.10
24103;DHT22;12278;53.058;9.028;2022-09-12T16:47:29;22.60;98.30
24103;DHT22;12278;53.058;9.028;2022-09-12T16:51:32;22.50;98.40
24103;DHT22;12278;53.058;9.028;2022-09-12T16:55:36;22.40;99.30
24103;DHT22;12278;53.058;9.028;2022-09-12T16:59:37;22.30;99.60
24103;DHT22;12278;53.058;9.028;2022-09-12T17:03:37;22.30;99.90
24103;DHT22;12278;53.058;9.028;2022-09-12T17:07:39;22.10;99.90
24103;DHT22;12278;53.058;9.028;2022-09-12T17:11:40;21.90;99.90
24103;DHT22;12278;53.058;9.028;2022-09-12T17:15:41;21.60;99.90
24103;DHT22;12278;53.058;9.028;2022-09-12T17:19:41;21.50;99.90
24103;DHT22;12278;53.058;9.028;2022-09-12T17:23:43;21.40;99.90
24103;DHT22;12278;53.058;9.028;2022-09-12T17:27:44;21.20;99.90
24103;DHT22;12278;53.058;9.028;2022-09-12T17:31:44;21.10;99.90
24103;DHT22;12278;53.058;9.028;2022-09-12T17:35:45;21.00;99.90
24103;DHT22;12278;53.058;9.028;2022-09-12T17:39:46;20.90;99.90
24103;DHT22;12278;53.058;9.028;2022-09-12T17:44:05;20.70;99.90
24103;DHT22;12278;53.058;9.028;2022-09-12T17:48:08;20.60;99.90
24103;DHT22;12278;53.058;9.028;2022-09-12T17:52:10;20.40;99.90
24103;DHT22;12278;53.058;9.028;2022-09-12T17:56:11;20.30;99.90
24103;DHT22;12278;53.058;9.028;2022-09-12T18:00:13;20.00;99.90
24103;DHT22;12278;53.058;9.028;2022-09-12T18:04:14;19.90;99.90
24103;DHT22;12278;53.058;9.028;2022-09-12T18:08:16;19.90;99.90
24103;DHT22;12278;53.058;9.028;2022-09-12T18:12:16;20.00;99.90
24103;DHT22;12278;53.058;9.028;2022-09-12T18:16:17;19.90;99.90
24103;DHT22;12278;53.058;9.028;2022-09-12T18:20:20;20.00;99.90
24103;DHT22;12278;53.058;9.028;2022-09-12T18:24:21;19.90;99.90
24103;DHT22;12278;53.058;9.028;2022-09-12T18:28:22;19.80;99.90
24103;DHT22;12278;53.058;9.028;2022-09-12T18:32:22;19.70;99.90
24103;DHT22;12278;53.058;9.028;2022-09-12T18:36:23;19.70;99.90
24103;DHT22;12278;53.058;9.028;2022-09-12T18:40:24;19.60;99.90
24103;DHT22;12278;53.058;9.028;2022-09-12T18:44:25;19.50;99.90
24103;DHT22;12278;53.058;9.028;2022-09-12T18:48:26;19.50;99.90
24103;DHT22;12278;53.058;9.028;2022-09-12T18:52:26;19.50;99.90
24103;DHT22;12278;53.058;9.028;2022-09-12T18:56:28;19.50;99.90
24103;DHT22;12278;53.058;9.028;2022-09-12T19:00:32;19.40;99.90
24103;DHT22;12278;53.058;9.028;2022-09-12T19:04:32;19.40;99.90
24103;DHT22;12278;53.058;9.028;2022-09-12T19:08:33;19.30;99.90
24103;DHT22;12278;53.058;9.028;2022-09-12T19:12:35;19.20;99.90
24103;DHT22;12278;53.058;9.028;2022-09-12T19:16:36;19.20;99.90
24103;DHT22;12278;53.058;9.028;2022-09-12T19:20:37;19.20;99.90
24103;DHT22;12278;53.058;9.028;2022-09-12T19:24:37;19.10;99.90
24103;DHT22;12278;53.058;9.028;2022-09-12T19:28:39;19.00;99.90
24103;DHT22;12278;53.058;9.028;2022-09-12T19:32:41;18.90;99.90
24103;DHT22;12278;53.058;9.028;2022-09-12T19:36:43;18.90;99.90
24103;DHT22;12278;53.058;9.028;2022-09-12T19:40:44;18.90;99.90
24103;DHT22;12278;53.058;9.028;2022-09-12T19:44:55;18.70;99.90
24103;DHT22;12278;53.058;9.028;2022-09-12T19:48:57;18.70;99.90
24103;DHT22;12278;53.058;9.028;2022-09-12T19:52:57;18.50;99.90
24103;DHT22;12278;53.058;9.028;2022-09-12T19:56:58;18.40;99.90
24103;DHT22;12278;53.058;9.028;2022-09-12T20:01:09;18.40;99.90
24103;DHT22;12278;53.058;9.028;2022-09-12T20:05:10;18.30;99.90
24103;DHT22;12278;53.058;9.028;2022-09-12T20:09:10;18.20;99.90
24103;DHT22;12278;53.058;9.028;2022-09-12T20:13:11;18.00;99.90
24103;DHT22;12278;53.058;9.028;2022-09-12T20:17:12;18.10;99.90
24103;DHT22;12278;53.058;9.028;2022-09-12T20:21:14;18.10;99.90
24103;DHT22;12278;53.058;9.028;2022-09-12T20:25:17;18.00;99.90
24103;DHT22;12278;53.058;9.028;2022-09-12T20:29:19;18.10;99.90
24103;DHT22;12278;53.058;9.028;2022-09-12T20:33:20;17.90;99.90
24103;DHT22;12278;53.058;9.028;2022-09-12T20:37:20;17.90;99.90
24103;DHT22;12278;53.058;9.028;2022-09-12T20:41:22;17.90;99.90
24103;DHT22;12278;53.058;9.028;2022-09-12T20:45:25;17.90;99.90
24103;DHT22;12278;53.058;9.028;2022-09-12T20:49:26;17.90;99.90
24103;DHT22;12278;53.058;9.028;2022-09-12T20:53:27;17.90;99.90
24103;DHT22;12278;53.058;9.028;2022-09-12T20:57:28;17.90;99.90
24103;DHT22;12278;53.058;9.028;2022-09-12T21:01:29;17.90;99.90
24103;DHT22;12278;53.058;9.028;2022-09-12T21:05:34;17.80;99.90
24103;DHT22;12278;53.058;9.028;2022-09-12T21:09:35;17.70;99.90
24103;DHT22;12278;53.058;9.028;2022-09-12T21:13:38;17.70;99.90
24103;DHT22;12278;53.058;9.028;2022-09-12T21:17:39;17.80;99.90
24103;DHT22;12278;53.058;9.028;2022-09-12T21:21:39;17.70;99.90
24103;DHT22;12278;53.058;9.028;2022-09-12T21:25:41;17.60;99.90
24103;DHT22;12278;53.058;9.028;2022-09-12T21:29:42;17.60;99.90
24103;DHT22;12278;53.058;9.028;2022-09-12T21:33:43;17.50;99.90
24103;DHT22;12278;53.058;9.028;2022-09-12T21:37:43;17.50;99.90
24103;DHT22;12278;53.058;9.028;2022-09-12T21:41:44;17.40;99.90
24103;DHT22;12278;53.058;9.028;2022-09-12T21:45:45;17.40;99.90
24103;DHT22;12278;53.058;9.028;2022-09-12T21:49:45;17.50;99.90
24103;DHT22;12278;53.058;9.028;2022-09-12T21:53:46;17.50;99.90
24103;DHT22;12278;53.058;9.028;2022-09-12T21:57:47;17.60;99.90
24103;DHT22;12278;53.058;9.028;2022-09-12T22:01:48;17.50;99.90
24103;DHT22;12278;53.058;9.028;2022-09-12T22:05:55;17.50;99.90
24103;DHT22;12278;53.058;9.028;2022-09-12T22:09:57;17.50;99.90
24103;DHT22;12278;53.058;9.028;2022-09-12T22:13:57;17.40;99.90
24103;DHT22;12278;53.058;9.028;2022-09-12T22:17:58;17.50;99.90
24103;DHT22;12278;53.058;9.028;2022-09-12T22:21:59;17.50;99.90
24103;DHT22;12278;53.058;9.028;2022-09-12T22:26:18;17.50;99.90
24103;DHT22;12278;53.058;9.028;2022-09-12T22:30:22;17.50;99.90
24103;DHT22;12278;53.058;9.028;2022-09-12T22:34:25;17.60;99.90
24103;DHT22;12278;53.058;9.028;2022-09-12T22:38:26;17.60;99.90
24103;DHT22;12278;53.058;9.028;2022-09-12T22:42:27;17.60;99.90
24103;DHT22;12278;53.058;9.028;2022-09-12T22:46:30;17.50;99.90
24103;DHT22;12278;53.058;9.028;2022-09-12T22:50:31;17.60;99.90
24103;DHT22;12278;53.058;9.028;2022-09-12T22:54:32;17.50;99.90
24103;DHT22;12278;53.058;9.028;2022-09-12T22:58:33;17.50;99.90
24103;DHT22;12278;53.058;9.028;2022-09-12T23:02:36;17.60;99.90
24103;DHT22;12278;53.058;9.028;2022-09-12T23:06:37;17.60;99.90
24103;DHT22;12278;53.058;9.028;2022-09-12T23:10:38;17.60;99.90
24103;DHT22;12278;53.058;9.028;2022-09-12T23:14:38;17.60;99.90
24103;DHT22;12278;53.058;9.028;2022-09-12T23:18:39;17.60;99.90
24103;DHT22;12278;53.058;9.028;2022-09-12T23:22:40;17.50;99.90
24103;DHT22;12278;53.058;9.028;2022-09-12T23:26:40;17.50;99.90
24103;DHT22;12278;53.058;9.028;2022-09-12T23:30:42;17.50;99.90
24103;DHT22;12278;53.058;9.028;2022-09-12T23:34:42;17.50;99.90
24103;DHT22;12278;53.058;9.028;2022-09-12T23:38:45;17.50;99.90
24103;DHT22;12278;53.058;9.028;2022-09-12T23:42:46;17.50;99.90
24103;DHT22;12278;53.058;9.028;2022-09-12T23:46:47;17.60;99.90
24103;DHT22;12278;53.058;9.028;2022-09-12T23:50:48;17.60;99.90
24103;DHT22;12278;53.058;9.028;2022-09-12T23:54:49;17.60;99.90
24103;DHT22;12278;53.058;9.028;2022-09-12T23:58:50;17.60;99.90
